Time;durP1;ratioP1;P1;durP2;ratioP2;P2;SDS_P1;SDS_P2;PMS_P1;PMS_P2;Temp;Humidity;BMP_temperature;BMP_pressure;BME280_temperature;BME280_humidity;BME280_pressure;Samples;Min_cycle;Max_cycle;Signal;HPM_P1;HPM_P2
2022/02/04 00:05:15;;;;;;;20.43;11.70;;;24.10;54.00;;;;;;6237923;23;20365;-86
2022/02/04 00:20:54;;;;;;;12.00;9.63;;;24.10;53.90;;;;;;6227891;23;20373;-87
2022/02/04 00:23:28;;;;;;;14.87;11.23;;;24.10;53.90;;;;;;6227829;23;20362;-86
2022/02/04 00:26:10;;;;;;;14.70;10.07;;;24.10;54.00;;;;;;6226579;23;20436;-86
2022/02/04 00:33:34;;;;;;;13.13;10.70;;;24.10;54.00;;;;;;6227728;23;20171;-87
2022/02/04 00:36:09;;;;;;;12.13;9.90;;;24.10;54.00;;;;;;6201303;23;20389;-87
2022/02/04 00:38:36;;;;;;;13.10;9.40;;;24.10;54.00;;;;;;6227497;23;20351;-87
2022/02/04 00:41:09;;;;;;;13.67;10.50;;;24.10;54.00;;;;;;6200728;23;20393;-86
2022/02/04 00:43:37;;;;;;;13.50;10.73;;;24.10;53.90;;;;;;6200984;23;20375;-86
2022/02/04 00:46:14;;;;;;;12.27;9.47;;;24.10;53.90;;;;;;6227393;23;20374;-86
2022/02/04 00:51:19;;;;;;;13.23;10.73;;;24.10;53.90;;;;;;6228088;23;20378;-86
2022/02/04 00:54:15;;;;;;;12.07;9.33;;;24.10;53.90;;;;;;6227723;23;20162;-86
2022/02/04 00:56:50;;;;;;;11.23;9.93;;;24.10;53.90;;;;;;6225785;23;20520;-86
2022/02/04 01:26:40;;;;;;;10.10;9.07;;;24.10;54.00;;;;;;6229191;23;20457;-86
2022/02/04 01:29:10;;;;;;;13.50;9.30;;;24.00;53.90;;;;;;6201884;23;20409;-86
2022/02/04 01:31:38;;;;;;;10.93;9.13;;;24.10;54.00;;;;;;6228494;23;20358;-86
2022/02/04 01:34:04;;;;;;;10.23;8.60;;;24.10;53.90;;;;;;6201272;23;20418;-86
2022/02/04 01:36:30;;;;;;;12.27;8.70;;;24.10;53.90;;;;;;6202114;23;20425;-86
2022/02/04 01:38:56;;;;;;;11.67;9.07;;;24.10;53.90;;;;;;6227759;23;20378;-87
2022/02/04 01:41:22;;;;;;;11.50;9.83;;;24.10;53.90;;;;;;6202061;23;20155;-87
2022/02/04 01:43:49;;;;;;;13.33;9.70;;;24.10;53.90;;;;;;6201215;23;20159;-87
2022/02/04 01:46:18;;;;;;;11.50;8.67;;;24.10;53.90;;;;;;6228508;23;20484;-87
2022/02/04 01:48:44;;;;;;;12.20;8.53;;;24.10;53.90;;;;;;6201702;23;20393;-86
2022/02/04 01:51:14;;;;;;;9.50;8.40;;;24.10;53.90;;;;;;6201684;23;20386;-86
2022/02/04 01:54:06;;;;;;;9.77;8.77;;;24.10;53.90;;;;;;6236247;23;20167;-88
2022/02/04 01:56:57;;;;;;;10.97;9.70;;;24.10;53.90;;;;;;6094545;23;20378;-88
2022/02/04 01:59:25;;;;;;;10.80;8.33;;;24.10;53.90;;;;;;6095411;23;20474;-88
2022/02/04 02:01:55;;;;;;;10.40;8.40;;;24.00;53.80;;;;;;6119455;23;20370;-88
2022/02/04 02:04:27;;;;;;;10.27;8.90;;;24.00;53.80;;;;;;6071952;23;20370;-88
2022/02/04 02:07:10;;;;;;;9.73;8.30;;;24.10;53.90;;;;;;6097558;23;20386;-88
2022/02/04 02:09:50;;;;;;;10.53;8.33;;;24.10;53.90;;;;;;6094842;23;20386;-88
2022/02/04 02:12:29;;;;;;;10.33;7.90;;;24.10;53.90;;;;;;6094754;23;20481;-88
2022/02/04 02:15:14;;;;;;;11.10;8.70;;;24.00;53.90;;;;;;6118870;23;20382;-88
2022/02/04 02:35:23;;;;;;;9.60;8.60;;;24.00;53.90;;;;;;6119092;23;20360;-87
2022/02/04 02:54:10;;;;;;;9.77;8.30;;;24.00;53.90;;;;;;6227147;23;20420;-86
2022/02/04 02:59:10;;;;;;;10.37;8.50;;;24.00;54.40;;;;;;6239475;23;20374;-87
2022/02/04 03:01:44;;;;;;;9.33;7.27;;;24.00;53.90;;;;;;6212791;23;20421;-86
2022/02/04 03:04:13;;;;;;;8.93;7.53;;;24.00;53.90;;;;;;6212077;23;20446;-85
2022/02/04 03:06:39;;;;;;;9.77;7.00;;;24.00;53.90;;;;;;6212928;23;20378;-85
2022/02/04 03:09:05;;;;;;;9.10;7.43;;;24.00;53.90;;;;;;6212116;23;20383;-86
2022/02/04 03:11:34;;;;;;;8.80;7.17;;;24.00;53.90;;;;;;6211838;23;20386;-85
2022/02/04 03:14:01;;;;;;;8.43;7.30;;;24.00;53.80;;;;;;6211809;23;20422;-85
2022/02/04 03:16:28;;;;;;;9.97;7.20;;;24.00;53.90;;;;;;6211074;23;20378;-85
2022/02/04 03:18:55;;;;;;;11.30;7.97;;;24.00;53.90;;;;;;6238283;23;20366;-86
2022/02/04 03:21:38;;;;;;;8.60;7.47;;;24.00;53.90;;;;;;6211936;23;20374;-87
2022/02/04 03:24:16;;;;;;;8.93;7.80;;;24.00;53.90;;;;;;6212884;23;20402;-86
2022/02/04 03:27:03;;;;;;;9.60;7.40;;;23.90;53.80;;;;;;6217498;23;20389;-85
2022/02/04 03:29:45;;;;;;;8.97;7.70;;;23.90;53.80;;;;;;6188943;23;20405;-86
2022/02/04 03:32:18;;;;;;;7.63;6.77;;;23.90;53.80;;;;;;6213334;23;20385;-85
2022/02/04 03:34:44;;;;;;;9.53;8.00;;;23.90;53.80;;;;;;6238915;23;20429;-86
2022/02/04 03:37:12;;;;;;;7.90;7.10;;;23.90;53.80;;;;;;6213167;23;20370;-86
2022/02/04 03:39:45;;;;;;;8.87;7.93;;;23.90;53.90;;;;;;6236779;23;20362;-86
2022/02/04 03:42:12;;;;;;;9.07;7.77;;;23.90;53.80;;;;;;6213112;23;20370;-85
2022/02/04 03:44:38;;;;;;;8.10;7.30;;;23.90;53.80;;;;;;6212551;23;20354;-86
2022/02/04 03:47:04;;;;;;;7.73;6.77;;;23.90;53.80;;;;;;6212069;23;20438;-86
2022/02/04 03:49:30;;;;;;;8.67;7.30;;;23.90;53.90;;;;;;6211982;23;20392;-86
2022/02/04 03:51:58;;;;;;;7.40;6.70;;;23.90;53.90;;;;;;6212142;23;20135;-85
2022/02/04 03:54:26;;;;;;;9.87;7.90;;;23.90;53.90;;;;;;6212797;23;20401;-85
2022/02/04 03:56:52;;;;;;;8.50;6.90;;;23.90;53.90;;;;;;6212818;23;20393;-85
2022/02/04 03:59:18;;;;;;;7.70;6.87;;;23.90;53.90;;;;;;6211684;23;20390;-86
2022/02/04 04:01:45;;;;;;;7.57;6.73;;;23.90;53.90;;;;;;6211981;23;20410;-86
2022/02/04 04:04:12;;;;;;;9.50;6.37;;;23.90;53.90;;;;;;6238692;23;20151;-86
2022/02/04 04:06:40;;;;;;;8.60;6.67;;;23.90;53.90;;;;;;6188179;23;20417;-86
2022/02/04 04:09:06;;;;;;;8.00;7.20;;;23.90;53.90;;;;;;6212368;23;20382;-85
2022/02/04 04:11:32;;;;;;;7.20;6.50;;;23.90;54.50;;;;;;6212231;23;20404;-86
2022/02/04 04:13:58;;;;;;;9.60;6.53;;;23.90;53.90;;;;;;6238762;23;20183;-86
2022/02/04 04:16:24;;;;;;;7.90;6.00;;;23.80;53.80;;;;;;6213676;23;20370;-85
2022/02/04 04:18:52;;;;;;;7.97;7.00;;;23.80;53.80;;;;;;6213256;23;20370;-85
2022/02/04 04:21:18;;;;;;;7.43;6.13;;;23.80;53.80;;;;;;6213570;23;20385;-86
2022/02/04 04:23:44;;;;;;;8.83;7.07;;;23.90;53.90;;;;;;6211636;23;20386;-85
2022/02/04 04:26:12;;;;;;;7.77;6.60;;;23.90;53.90;;;;;;6187658;23;20386;-86
2022/02/04 04:28:40;;;;;;;7.77;6.60;;;23.80;53.80;;;;;;6212971;23;20390;-86
2022/02/04 04:31:06;;;;;;;9.17;7.30;;;23.80;53.80;;;;;;6213211;23;20457;-86
2022/02/04 04:33:32;;;;;;;8.57;7.20;;;23.80;53.80;;;;;;6211963;23;20428;-85
2022/02/04 04:35:59;;;;;;;7.50;6.27;;;23.80;53.90;;;;;;6211880;23;20158;-86
2022/02/04 04:38:38;;;;;;;9.73;6.40;;;23.80;53.90;;;;;;6211646;23;20374;-86
2022/02/04 04:41:30;;;;;;;7.07;6.27;;;23.80;53.90;;;;;;6214168;23;20420;-86
2022/02/04 05:30:16;;;;;;;8.40;6.10;;;23.70;54.00;;;;;;6243726;23;20393;-86
2022/02/04 05:32:45;;;;;;;6.50;5.67;;;23.70;54.00;;;;;;6212645;23;20448;-86
2022/02/04 05:35:11;;;;;;;6.63;5.70;;;23.70;54.00;;;;;;6210067;23;20374;-86
2022/02/04 05:37:42;;;;;;;8.67;6.20;;;23.70;54.00;;;;;;6212367;23;20378;-86
2022/02/04 05:40:12;;;;;;;6.60;5.50;;;23.70;54.00;;;;;;6212045;23;20382;-86
2022/02/04 05:42:45;;;;;;;7.77;6.30;;;23.70;54.00;;;;;;6212075;23;20413;-86
2022/02/04 05:45:19;;;;;;;7.30;6.60;;;23.70;54.00;;;;;;6238612;23;20354;-86
2022/02/04 05:47:50;;;;;;;7.83;5.80;;;23.70;54.00;;;;;;6238511;23;20359;-86
2022/02/04 05:50:28;;;;;;;7.13;5.97;;;23.70;54.00;;;;;;6239269;23;20354;-86
2022/02/04 05:53:28;;;;;;;7.17;5.70;;;23.70;54.00;;;;;;6240010;23;20429;-85
2022/02/04 05:56:09;;;;;;;7.37;6.43;;;23.80;54.10;;;;;;6237894;23;20410;-86
2022/02/04 05:58:47;;;;;;;7.87;6.70;;;23.80;54.10;;;;;;6212310;23;20409;-85
2022/02/04 06:07:20;;;;;;;7.93;6.50;;;23.80;54.30;;;;;;6174672;23;20866;-86
2022/02/04 06:23:27;;;;;;;6.73;5.40;;;23.80;54.80;;;;;;6172094;23;20451;-85
2022/02/04 06:25:53;;;;;;;7.90;5.73;;;23.80;54.20;;;;;;6146636;23;20792;-87
2022/02/04 06:28:28;;;;;;;7.40;6.37;;;23.80;54.20;;;;;;6172410;23;20157;-87
2022/02/04 06:30:54;;;;;;;5.63;4.87;;;23.90;54.20;;;;;;6147541;23;20403;-87
2022/02/04 06:33:20;;;;;;;7.50;6.20;;;23.90;54.20;;;;;;6147471;23;20450;-87
2022/02/04 06:35:46;;;;;;;6.80;5.33;;;23.90;54.20;;;;;;6172311;23;20148;-87
2022/02/04 06:38:16;;;;;;;6.97;5.53;;;23.90;54.20;;;;;;6191840;23;20378;-87
2022/02/04 06:40:42;;;;;;;6.23;5.63;;;23.90;54.10;;;;;;6233558;23;20370;-87
2022/02/04 06:43:09;;;;;;;6.17;4.97;;;23.90;54.10;;;;;;6207153;23;20382;-87
2022/02/04 06:45:37;;;;;;;5.80;5.17;;;23.90;54.10;;;;;;6207212;23;20164;-87
2022/02/04 06:48:05;;;;;;;6.13;5.33;;;23.90;54.10;;;;;;6208024;23;20382;-87
2022/02/04 06:50:31;;;;;;;9.00;5.37;;;23.90;54.10;;;;;;6207222;23;20392;-87
2022/02/04 06:52:57;;;;;;;6.97;5.60;;;23.90;54.10;;;;;;6207037;23;20449;-86
2022/02/04 06:55:23;;;;;;;7.10;5.40;;;23.90;54.10;;;;;;6233270;23;20143;-87
2022/02/04 07:01:18;;;;;;;6.03;4.70;;;23.90;54.10;;;;;;6233460;23;20349;-87
2022/02/04 07:03:44;;;;;;;5.90;4.50;;;23.90;54.10;;;;;;6207504;23;20394;-87
2022/02/04 07:06:14;;;;;;;5.53;5.00;;;23.90;54.20;;;;;;6207996;23;20162;-87
2022/02/04 07:09:09;;;;;;;6.97;5.03;;;23.90;54.10;;;;;;6207172;23;20386;-87
2022/02/04 07:16:43;;;;;;;4.90;4.40;;;23.90;54.10;;;;;;6234082;23;20378;-87
2022/02/04 07:21:53;;;;;;;5.10;4.57;;;23.90;54.10;;;;;;6233928;23;20373;-86
2022/02/04 07:24:19;;;;;;;6.13;4.60;;;24.00;54.20;;;;;;6207175;23;20385;-87
2022/02/04 07:26:45;;;;;;;6.53;4.60;;;24.00;54.20;;;;;;6207179;23;20163;-87
2022/02/04 07:29:11;;;;;;;5.50;4.50;;;24.00;54.20;;;;;;6206870;23;20182;-87
2022/02/04 07:31:39;;;;;;;6.43;5.20;;;24.00;54.10;;;;;;6232516;23;20169;-87
2022/02/04 07:42:11;;;;;;;4.77;4.27;;;24.00;54.10;;;;;;6233558;23;20450;-87
2022/02/04 07:44:37;;;;;;;6.00;4.30;;;24.00;54.10;;;;;;6206803;23;20386;-87
2022/02/04 07:47:06;;;;;;;4.57;3.97;;;24.00;54.10;;;;;;6207960;23;20155;-87
2022/02/04 07:49:32;;;;;;;6.03;4.47;;;24.00;54.10;;;;;;6233011;23;20147;-87
2022/02/04 07:51:57;;;;;;;5.17;4.40;;;24.10;54.20;;;;;;6207825;23;20389;-87
2022/02/04 07:54:23;;;;;;;5.00;4.40;;;24.10;54.10;;;;;;6232603;23;20183;-87
2022/02/04 07:56:49;;;;;;;5.47;4.47;;;24.10;54.10;;;;;;6207683;23;20215;-87
2022/02/04 07:59:15;;;;;;;6.93;5.50;;;24.10;54.10;;;;;;6207599;23;20147;-87
2022/02/04 08:01:41;;;;;;;5.63;4.77;;;24.10;54.10;;;;;;6208126;23;20366;-86
2022/02/04 08:04:17;;;;;;;6.50;4.63;;;24.10;54.60;;;;;;6207717;23;20200;-87
2022/02/04 08:06:57;;;;;;;8.10;4.87;;;24.10;54.10;;;;;;6234220;23;20139;-87
2022/02/04 08:18:59;;;;;;;5.20;4.50;;;24.10;54.10;;;;;;6131024;23;20379;-87
2022/02/04 08:26:35;;;;;;;5.90;4.53;;;24.10;54.10;;;;;;6172108;23;20360;-87
2022/02/04 08:32:12;;;;;;;5.60;5.10;;;24.10;54.10;;;;;;6173035;23;20407;-87
2022/02/04 08:51:16;;;;;;;6.23;4.50;;;24.10;54.10;;;;;;6234437;23;20362;-86
2022/02/04 08:56:41;;;;;;;4.90;4.03;;;24.10;54.10;;;;;;6244196;23;20358;-86
2022/02/04 08:59:16;;;;;;;4.20;3.80;;;24.10;54.00;;;;;;6207676;23;20371;-86
2022/02/04 09:01:58;;;;;;;4.27;3.83;;;24.10;54.00;;;;;;6207545;23;20373;-87
2022/02/04 09:04:33;;;;;;;5.00;4.13;;;24.10;54.00;;;;;;6233792;23;20369;-86
2022/02/04 09:07:04;;;;;;;4.03;3.50;;;24.10;54.00;;;;;;6233374;23;20361;-86
2022/02/04 09:09:47;;;;;;;4.90;3.83;;;24.10;54.00;;;;;;6206905;23;20371;-86
2022/02/04 09:20:28;;;;;;;5.00;3.87;;;24.10;53.90;;;;;;6234358;23;20864;-86
2022/02/04 09:22:58;;;;;;;3.80;3.00;;;24.10;53.90;;;;;;6233534;23;20409;-86
2022/02/04 09:25:27;;;;;;;3.93;3.20;;;24.10;53.90;;;;;;6210058;23;20385;-86
2022/02/04 09:27:56;;;;;;;6.07;4.10;;;24.10;53.90;;;;;;6235012;23;20198;-86
2022/02/04 09:30:26;;;;;;;4.80;3.60;;;24.10;53.90;;;;;;6208341;23;20406;-86
2022/02/04 09:33:01;;;;;;;4.67;3.90;;;24.10;54.50;;;;;;6235072;23;20509;-87
2022/02/04 09:35:31;;;;;;;3.83;3.53;;;24.10;53.90;;;;;;6208260;23;20409;-85
2022/02/04 09:37:58;;;;;;;5.13;4.60;;;24.10;53.90;;;;;;6235715;23;20375;-87
2022/02/04 09:40:32;;;;;;;3.33;3.03;;;24.10;53.80;;;;;;6208747;23;20378;-86
2022/02/04 09:43:03;;;;;;;5.90;3.43;;;24.10;53.80;;;;;;6208963;23;20389;-86
2022/02/04 09:45:35;;;;;;;4.03;3.43;;;24.10;53.80;;;;;;6208779;23;20382;-86
2022/02/04 09:48:04;;;;;;;3.53;3.23;;;24.10;53.80;;;;;;6208586;23;20371;-86
2022/02/04 09:50:34;;;;;;;4.23;3.50;;;24.10;53.80;;;;;;6208282;23;20383;-86
2022/02/04 10:18:46;;;;;;;4.10;3.00;;;24.10;53.90;;;;;;6115358;23;20434;-86
2022/02/04 10:21:15;;;;;;;4.33;3.10;;;24.10;53.90;;;;;;6114873;23;20387;-86
2022/02/04 10:23:45;;;;;;;3.90;2.80;;;24.10;53.90;;;;;;6115064;23;20696;-86
2022/02/04 10:26:11;;;;;;;3.77;2.87;;;24.10;53.90;;;;;;6115304;23;20385;-87
2022/02/04 10:28:37;;;;;;;3.47;2.77;;;24.10;53.90;;;;;;6090954;23;20417;-87
2022/02/04 10:31:09;;;;;;;4.20;2.83;;;24.10;53.90;;;;;;6090408;23;20408;-87
2022/02/04 10:34:19;;;;;;;4.80;3.00;;;24.10;53.90;;;;;;6090116;23;20437;-87
2022/02/04 10:36:53;;;;;;;4.17;3.10;;;24.10;53.90;;;;;;6114154;23;20880;-86
2022/02/04 10:39:30;;;;;;;4.07;3.03;;;24.10;53.90;;;;;;6114113;23;20365;-87
2022/02/04 10:42:57;;;;;;;4.67;3.27;;;24.10;53.90;;;;;;6089774;23;20785;-86
2022/02/04 10:45:55;;;;;;;3.93;3.07;;;24.10;53.90;;;;;;6113970;23;20872;-86
2022/02/04 10:51:41;;;;;;;3.97;2.80;;;24.10;53.90;;;;;;6114938;23;20365;-86
2022/02/04 10:54:36;;;;;;;3.93;3.20;;;24.10;54.00;;;;;;6106093;23;20430;-86
2022/02/04 11:00:09;;;;;;;3.73;3.20;;;24.10;53.90;;;;;;6207817;23;20438;-86
2022/02/04 11:02:53;;;;;;;4.63;4.13;;;24.10;54.00;;;;;;6207960;23;20857;-86
2022/02/04 11:05:43;;;;;;;3.63;3.30;;;24.10;53.90;;;;;;6238307;23;20382;-87
2022/02/04 11:36:12;;;;;;;3.63;2.83;;;24.10;54.00;;;;;;6243527;23;20358;-86
2022/02/04 11:51:20;;;;;;;3.07;2.67;;;24.10;54.00;;;;;;6171798;23;20403;-85
2022/02/04 11:56:30;;;;;;;3.93;2.60;;;24.10;54.00;;;;;;6170781;23;20351;-85
2022/02/04 11:59:00;;;;;;;4.50;2.87;;;24.10;54.00;;;;;;6170095;23;20368;-85
2022/02/04 12:01:41;;;;;;;3.60;2.87;;;24.10;54.00;;;;;;6146715;23;20406;-85
2022/02/04 12:04:27;;;;;;;3.10;2.70;;;24.10;54.00;;;;;;6145658;23;20472;-85
2022/02/04 12:06:56;;;;;;;4.53;3.03;;;24.20;54.00;;;;;;6147141;23;20868;-86
2022/02/04 12:09:35;;;;;;;3.90;3.00;;;24.20;54.10;;;;;;6170901;23;20384;-86
2022/02/04 12:12:01;;;;;;;5.00;3.10;;;24.20;54.00;;;;;;6146639;23;20420;-86
2022/02/04 12:14:35;;;;;;;3.40;3.07;;;24.20;54.00;;;;;;6121707;23;20431;-87
2022/02/04 12:17:05;;;;;;;8.47;3.80;;;24.20;54.00;;;;;;6170547;23;20411;-86
2022/02/04 12:19:43;;;;;;;5.83;3.80;;;24.20;54.00;;;;;;6170360;23;20380;-85
2022/02/04 12:22:12;;;;;;;7.70;4.80;;;24.20;54.00;;;;;;6178115;23;20390;-87
2022/02/04 12:24:45;;;;;;;6.77;4.27;;;24.20;54.00;;;;;;6206187;23;20872;-87
2022/02/04 12:27:52;;;;;;;5.63;3.90;;;24.20;54.00;;;;;;6206002;23;20379;-86
2022/02/04 12:30:35;;;;;;;8.27;4.80;;;24.20;54.00;;;;;;6218909;23;20425;-87
2022/02/04 12:33:11;;;;;;;11.63;5.50;;;24.20;54.00;;;;;;6183004;23;20510;-86
2022/02/04 12:35:48;;;;;;;10.73;6.17;;;24.20;54.10;;;;;;6205829;23;20366;-87
2022/02/04 12:38:13;;;;;;;12.00;5.93;;;24.20;54.10;;;;;;6233395;23;20354;-86
2022/02/04 12:40:39;;;;;;;15.53;6.67;;;24.20;54.10;;;;;;6232528;23;20400;-86
2022/02/04 12:43:12;;;;;;;12.43;6.37;;;24.20;54.10;;;;;;6206045;23;20577;-87
2022/02/04 12:45:39;;;;;;;14.63;6.27;;;24.20;54.10;;;;;;6233788;23;20155;-86
2022/02/04 12:48:07;;;;;;;13.53;6.67;;;24.20;54.00;;;;;;6206665;23;20382;-87
2022/02/04 12:50:44;;;;;;;11.50;6.33;;;24.20;54.00;;;;;;6207888;23;20417;-86
2022/02/04 12:53:20;;;;;;;16.00;7.17;;;24.20;54.10;;;;;;6209992;23;20485;-86
2022/02/04 13:02:19;;;;;;;14.77;7.30;;;24.20;54.10;;;;;;6239033;23;20369;-86
2022/02/04 13:14:04;;;;;;;13.77;7.30;;;24.20;54.30;;;;;;6239207;23;20416;-85
2022/02/04 13:16:33;;;;;;;17.10;7.70;;;24.20;54.30;;;;;;6214403;23;20385;-86
2022/02/04 13:19:08;;;;;;;11.00;7.00;;;24.20;54.40;;;;;;6210689;23;20151;-86
2022/02/04 13:21:36;;;;;;;15.10;6.60;;;24.20;54.30;;;;;;6209356;23;20384;-86
2022/02/04 13:24:04;;;;;;;12.60;7.10;;;24.20;54.30;;;;;;6210759;23;20389;-86
2022/02/04 13:26:31;;;;;;;10.83;6.23;;;24.20;54.30;;;;;;6211267;23;20393;-85
2022/02/04 13:29:02;;;;;;;13.20;6.63;;;24.20;54.30;;;;;;6211108;23;20386;-85
2022/02/04 13:31:36;;;;;;;11.43;6.90;;;24.20;54.30;;;;;;6212760;23;20390;-85
2022/02/04 13:34:14;;;;;;;14.57;7.40;;;24.30;54.30;;;;;;6238110;23;20433;-85
2022/02/04 13:36:51;;;;;;;14.63;7.37;;;24.20;54.30;;;;;;6237825;23;20355;-85
2022/02/04 13:39:32;;;;;;;12.37;6.30;;;24.30;54.40;;;;;;6210655;23;20440;-85
2022/02/04 13:54:02;;;;;;;13.97;6.93;;;24.30;54.40;;;;;;6247925;23;20464;-84
2022/02/04 13:56:39;;;;;;;11.83;6.20;;;24.30;54.40;;;;;;6146479;23;20430;-85
2022/02/04 13:59:17;;;;;;;13.20;6.93;;;24.20;54.40;;;;;;6121421;23;20404;-85
2022/02/04 14:01:54;;;;;;;11.50;6.43;;;24.20;54.40;;;;;;6146416;23;20387;-85
2022/02/04 14:04:21;;;;;;;11.27;6.63;;;24.30;54.50;;;;;;6146152;23;20375;-85
2022/02/04 14:07:04;;;;;;;18.03;8.30;;;24.30;54.50;;;;;;6145708;23;20373;-85
2022/02/04 14:09:46;;;;;;;11.47;6.70;;;24.30;54.50;;;;;;6145287;23;20385;-85
2022/02/04 14:12:18;;;;;;;8.33;5.70;;;24.30;54.40;;;;;;6121636;23;20385;-85
2022/02/04 14:14:55;;;;;;;11.90;7.30;;;24.30;54.40;;;;;;6146483;23;20408;-85
2022/02/04 14:17:28;;;;;;;10.27;6.23;;;24.30;54.40;;;;;;6120520;23;20417;-85
2022/02/04 14:20:13;;;;;;;13.63;6.70;;;24.30;54.40;;;;;;6146317;23;20381;-85
2022/02/04 14:22:42;;;;;;;12.23;6.10;;;24.30;54.50;;;;;;6143900;23;20399;-84
2022/02/04 14:25:10;;;;;;;10.67;6.80;;;24.30;54.40;;;;;;6142576;23;20396;-84
2022/02/04 14:27:39;;;;;;;11.97;5.30;;;24.30;54.40;;;;;;6203719;23;20397;-85
2022/02/04 14:30:14;;;;;;;15.20;6.20;;;24.30;54.40;;;;;;6233384;23;20779;-84
2022/02/04 14:32:52;;;;;;;11.17;6.57;;;24.30;54.40;;;;;;6207850;23;20464;-84
2022/02/04 14:49:15;;;;;;;9.20;5.93;;;24.30;54.40;;;;;;6234689;23;20379;-84
2022/02/04 15:01:58;;;;;;;8.90;5.33;;;24.20;54.30;;;;;;6243543;23;20386;-83
2022/02/04 15:04:40;;;;;;;9.27;4.73;;;24.20;54.20;;;;;;6232706;23;20397;-84
2022/02/04 15:07:09;;;;;;;8.70;4.60;;;24.30;54.20;;;;;;6207277;23;20378;-84
2022/02/04 15:09:38;;;;;;;8.10;4.43;;;24.20;54.00;;;;;;6231291;23;20382;-84
2022/02/04 15:12:10;;;;;;;6.60;4.23;;;24.20;53.90;;;;;;6207133;23;20390;-83
2022/02/04 15:14:39;;;;;;;4.87;3.67;;;24.20;53.80;;;;;;6234590;23;20429;-85
2022/02/04 15:17:05;;;;;;;7.93;4.80;;;24.20;53.80;;;;;;6234702;23;20382;-85
2022/02/04 15:19:34;;;;;;;6.47;3.70;;;24.20;53.70;;;;;;6233782;23;20386;-84
2022/02/04 15:22:03;;;;;;;7.10;3.73;;;24.20;53.60;;;;;;6233984;23;20382;-85
2022/02/04 15:24:31;;;;;;;7.73;3.50;;;24.20;53.50;;;;;;6236673;23;20886;-85
2022/02/04 15:27:03;;;;;;;6.00;3.57;;;24.20;53.50;;;;;;6236746;23;20366;-85
2022/02/04 15:29:31;;;;;;;5.70;3.50;;;24.20;53.30;;;;;;6234340;23;20413;-85
2022/02/04 15:32:02;;;;;;;4.47;3.10;;;24.20;53.30;;;;;;6235974;23;20387;-85
2022/02/04 15:34:30;;;;;;;4.80;3.30;;;24.20;53.20;;;;;;6234642;23;20420;-85
2022/02/04 15:36:56;;;;;;;4.33;2.90;;;24.20;53.10;;;;;;6236103;23;20374;-84
2022/02/04 15:39:29;;;;;;;5.10;3.00;;;24.20;53.00;;;;;;6210121;23;20441;-85
2022/02/04 15:42:10;;;;;;;5.37;3.00;;;24.20;53.00;;;;;;6235329;23;20382;-85
2022/02/04 15:44:46;;;;;;;3.50;2.80;;;24.20;52.90;;;;;;6234795;23;20378;-85
2022/02/04 15:47:22;;;;;;;3.80;2.93;;;24.20;52.90;;;;;;6234811;23;20402;-84
2022/02/04 15:54:49;;;;;;;3.03;2.37;;;24.10;52.70;;;;;;6236569;23;20177;-84
2022/02/04 16:00:12;;;;;;;3.43;2.37;;;24.10;52.80;;;;;;6246277;23;20346;-85
2022/02/04 16:05:43;;;;;;;6.43;2.97;;;24.10;52.80;;;;;;6139649;23;20379;-83
2022/02/04 16:08:12;;;;;;;4.93;2.30;;;24.10;52.70;;;;;;6212120;23;20695;-84
2022/02/04 16:11:01;;;;;;;2.33;1.70;;;24.10;52.70;;;;;;6229133;23;20362;-84
2022/02/04 16:18:38;;;;;;;3.53;2.73;;;24.10;52.40;;;;;;6247086;23;20136;-86
2022/02/04 16:26:26;;;;;;;3.63;2.43;;;24.00;52.30;;;;;;6246657;23;20373;-84
2022/02/04 16:28:52;;;;;;;2.87;1.90;;;24.00;52.30;;;;;;6229119;23;20437;-84
2022/02/04 16:31:21;;;;;;;1.93;1.70;;;24.00;52.30;;;;;;6227769;23;20469;-84
2022/02/04 16:33:54;;;;;;;3.63;2.10;;;24.00;52.30;;;;;;6203317;23;20417;-84
2022/02/04 16:36:24;;;;;;;3.13;2.40;;;24.00;52.30;;;;;;6232440;23;20414;-83
2022/02/04 16:38:54;;;;;;;3.73;2.30;;;24.00;52.30;;;;;;6230269;23;20386;-83
2022/02/04 16:41:27;;;;;;;3.93;2.10;;;24.10;52.40;;;;;;6231659;23;20441;-83
2022/02/04 16:43:56;;;;;;;2.87;2.37;;;24.10;52.40;;;;;;6204560;23;20890;-83
2022/02/04 16:46:27;;;;;;;2.47;1.90;;;24.10;52.50;;;;;;6230162;23;20374;-84
2022/02/04 16:48:52;;;;;;;4.80;2.97;;;24.10;52.50;;;;;;6231672;23;20370;-83
2022/02/04 16:51:18;;;;;;;4.10;2.50;;;24.10;52.50;;;;;;6230834;23;20393;-85
2022/02/04 16:53:44;;;;;;;2.20;2.00;;;24.10;52.50;;;;;;6230738;23;20201;-85
2022/02/04 16:56:11;;;;;;;3.73;2.43;;;24.10;52.50;;;;;;6229907;23;20177;-85
2022/02/04 16:58:39;;;;;;;3.97;2.63;;;24.10;52.50;;;;;;6230152;23;20234;-85
2022/02/04 17:01:05;;;;;;;3.70;2.10;;;24.10;52.50;;;;;;6232267;23;20381;-84
2022/02/04 17:03:31;;;;;;;4.90;2.23;;;24.10;52.50;;;;;;6230913;23;20382;-87
2022/02/04 17:06:01;;;;;;;3.00;2.10;;;24.10;52.50;;;;;;6206797;23;20492;-84
2022/02/04 17:08:34;;;;;;;3.87;2.13;;;24.10;52.50;;;;;;6230946;23;20155;-85
2022/02/04 17:11:13;;;;;;;2.50;1.90;;;24.10;52.50;;;;;;6232485;23;20363;-85
2022/02/04 17:13:39;;;;;;;2.77;2.00;;;24.10;52.50;;;;;;6205765;23;20410;-85
2022/02/04 17:16:06;;;;;;;3.43;2.23;;;24.10;52.50;;;;;;6230674;23;20374;-85
2022/02/04 17:18:35;;;;;;;3.03;2.27;;;24.10;52.50;;;;;;6231788;23;20378;-85
2022/02/04 17:21:01;;;;;;;3.80;2.07;;;24.10;52.50;;;;;;6230839;23;20378;-85
2022/02/04 17:23:30;;;;;;;2.40;2.00;;;24.10;52.50;;;;;;6232220;23;20396;-85
2022/02/04 17:25:58;;;;;;;3.77;2.13;;;24.10;52.50;;;;;;6232789;23;20370;-85
2022/02/04 17:28:33;;;;;;;5.10;2.17;;;24.10;52.50;;;;;;6232024;23;20377;-85
2022/02/04 17:31:00;;;;;;;3.90;2.60;;;24.10;52.50;;;;;;6232804;23;20429;-85
2022/02/04 17:33:30;;;;;;;2.90;2.33;;;24.10;52.60;;;;;;6211396;23;20425;-85
2022/02/04 17:35:56;;;;;;;3.70;2.50;;;24.10;52.60;;;;;;6211681;23;20404;-84
2022/02/04 17:38:24;;;;;;;3.00;1.80;;;24.10;52.60;;;;;;6234337;23;20389;-85
2022/02/04 17:40:51;;;;;;;3.20;2.10;;;24.10;52.60;;;;;;6234020;23;20416;-85
2022/02/04 17:43:20;;;;;;;3.77;2.33;;;24.10;52.60;;;;;;6235090;23;20445;-85
2022/02/04 17:54:08;;;;;;;;;;;;;;;;;;;;;
2022/02/04 18:07:09;;;;;;;4.13;3.20;;;24.10;52.70;;;;;;6276546;22;20369;-83
2022/02/04 18:09:37;;;;;;;3.40;2.17;;;24.10;52.70;;;;;;6246618;22;20447;-85
2022/02/04 18:12:12;;;;;;;5.53;2.30;;;24.10;52.70;;;;;;6250164;22;20358;-84
2022/02/04 18:19:55;;;;;;;6.03;2.80;;;24.20;52.80;;;;;;6217022;22;20444;-84
2022/02/04 18:27:32;;;;;;;3.77;2.30;;;24.20;52.80;;;;;;6198592;22;20416;-84
2022/02/04 18:29:59;;;;;;;2.70;1.90;;;24.20;52.80;;;;;;6236806;22;20452;-84
2022/02/04 18:32:26;;;;;;;3.80;2.37;;;24.20;52.80;;;;;;6249953;23;20366;-84
2022/02/04 18:34:57;;;;;;;3.53;2.00;;;24.20;52.80;;;;;;6270478;22;20433;-83
2022/02/04 18:47:50;;;;;;;1.97;1.70;;;24.20;52.70;;;;;;6217174;22;20401;-85
2022/02/04 18:50:28;;;;;;;3.60;2.23;;;24.20;52.80;;;;;;6265189;22;20424;-83
2022/02/04 18:58:04;;;;;;;2.40;1.93;;;24.20;52.80;;;;;;6273047;23;20393;-85
2022/02/04 19:00:30;;;;;;;4.17;2.10;;;24.20;52.80;;;;;;6234843;23;20386;-84
2022/02/04 19:03:02;;;;;;;3.23;1.90;;;24.20;52.80;;;;;;6241818;23;20392;-84
2022/02/04 19:05:33;;;;;;;3.67;2.23;;;24.30;52.80;;;;;;6243850;23;20569;-83
2022/02/04 19:08:11;;;;;;;3.37;1.93;;;24.30;52.80;;;;;;6243289;23;20365;-83
2022/02/04 19:10:38;;;;;;;2.87;2.07;;;24.30;52.90;;;;;;6243935;23;20377;-83
2022/02/04 19:13:13;;;;;;;2.80;1.83;;;24.30;52.80;;;;;;6242993;23;20417;-83
2022/02/04 19:16:00;;;;;;;3.30;2.00;;;24.30;52.80;;;;;;6264686;23;20376;-83
2022/02/04 19:18:36;;;;;;;2.93;1.93;;;24.30;52.80;;;;;;6244020;23;20397;-83
2022/02/04 19:21:08;;;;;;;3.10;2.20;;;24.20;52.70;;;;;;6245369;23;20346;-83
2022/02/04 19:23:47;;;;;;;4.40;1.80;;;24.20;52.70;;;;;;6242794;23;20468;-83
2022/02/04 19:26:19;;;;;;;3.50;1.83;;;24.20;52.70;;;;;;6246675;23;20377;-83
2022/02/04 19:28:45;;;;;;;4.07;1.80;;;24.20;52.60;;;;;;6244263;23;20370;-83
2022/02/04 19:31:12;;;;;;;2.37;1.80;;;24.20;52.60;;;;;;6242613;23;20464;-83
2022/02/04 19:33:38;;;;;;;2.47;1.90;;;24.20;52.50;;;;;;6241865;23;20417;-83
2022/02/04 19:36:04;;;;;;;2.37;1.87;;;24.20;52.50;;;;;;6242504;23;20393;-83
2022/02/04 19:38:30;;;;;;;2.33;1.60;;;24.20;52.50;;;;;;6243062;23;20353;-83
2022/02/04 19:41:01;;;;;;;2.57;1.93;;;24.20;52.40;;;;;;6268156;23;20393;-83
2022/02/04 19:43:31;;;;;;;2.67;1.57;;;24.20;52.40;;;;;;6265435;23;20450;-83
2022/02/04 19:46:08;;;;;;;3.67;1.77;;;24.20;52.30;;;;;;6242877;23;20385;-83
2022/02/04 19:48:42;;;;;;;2.03;1.50;;;24.20;52.30;;;;;;6268574;23;20340;-83
2022/02/04 19:54:22;;;;;;;1.90;1.30;;;24.20;52.20;;;;;;6281385;23;20461;-80
2022/02/04 20:15:21;;;;;;;2.43;1.77;;;24.10;52.10;;;;;;6272191;23;20452;-81
2022/02/04 20:25:03;;;;;;;2.63;1.63;;;24.20;52.20;;;;;;6271521;23;20694;-81
2022/02/04 20:27:33;;;;;;;2.50;1.43;;;24.20;52.30;;;;;;6245802;23;20405;-79
2022/02/04 20:30:02;;;;;;;2.30;1.83;;;24.20;52.30;;;;;;6245844;23;20851;-81